sensor_id;sensor_type;location;lat;lon;timestamp;P1;durP1;ratioP1;P2;durP2;ratioP2
36233;SDS011;43467;50.890;5.982;2023-09-18T00:00:23;12.35;;;5.30;;
36233;SDS011;43467;50.890;5.982;2023-09-18T00:02:48;12.60;;;5.55;;
36233;SDS011;43467;50.890;5.982;2023-09-18T00:05:14;12.07;;;5.60;;
36233;SDS011;43467;50.890;5.982;2023-09-18T00:07:44;12.75;;;5.40;;
36233;SDS011;43467;50.890;5.982;2023-09-18T00:10:10;9.95;;;4.85;;
36233;SDS011;43467;50.890;5.982;2023-09-18T00:12:36;10.35;;;5.65;;
36233;SDS011;43467;50.890;5.982;2023-09-18T00:15:02;9.27;;;4.60;;
36233;SDS011;43467;50.890;5.982;2023-09-18T00:17:28;9.80;;;4.72;;
36233;SDS011;43467;50.890;5.982;2023-09-18T00:19:54;12.50;;;6.25;;
36233;SDS011;43467;50.890;5.982;2023-09-18T00:22:23;12.55;;;5.13;;
36233;SDS011;43467;50.890;5.982;2023-09-18T00:24:49;7.82;;;5.38;;
36233;SDS011;43467;50.890;5.982;2023-09-18T00:27:15;12.23;;;4.88;;
36233;SDS011;43467;50.890;5.982;2023-09-18T00:29:41;11.57;;;5.15;;
36233;SDS011;43467;50.890;5.982;2023-09-18T00:32:07;12.13;;;5.68;;
36233;SDS011;43467;50.890;5.982;2023-09-18T00:34:33;13.23;;;4.65;;
36233;SDS011;43467;50.890;5.982;2023-09-18T00:36:58;7.78;;;4.22;;
36233;SDS011;43467;50.890;5.982;2023-09-18T00:39:25;9.85;;;4.70;;
36233;SDS011;43467;50.890;5.982;2023-09-18T00:41:51;13.10;;;4.60;;
36233;SDS011;43467;50.890;5.982;2023-09-18T00:44:19;12.43;;;6.00;;
36233;SDS011;43467;50.890;5.982;2023-09-18T00:46:46;11.43;;;4.97;;
36233;SDS011;43467;50.890;5.982;2023-09-18T00:49:12;14.57;;;5.72;;
36233;SDS011;43467;50.890;5.982;2023-09-18T00:51:38;12.20;;;5.18;;
36233;SDS011;43467;50.890;5.982;2023-09-18T00:54:05;11.43;;;4.25;;
36233;SDS011;43467;50.890;5.982;2023-09-18T00:56:32;11.30;;;4.75;;
36233;SDS011;43467;50.890;5.982;2023-09-18T00:58:59;16.60;;;5.20;;
36233;SDS011;43467;50.890;5.982;2023-09-18T01:01:26;11.75;;;4.85;;
36233;SDS011;43467;50.890;5.982;2023-09-18T01:03:53;9.73;;;4.95;;
36233;SDS011;43467;50.890;5.982;2023-09-18T01:06:19;8.80;;;4.60;;
36233;SDS011;43467;50.890;5.982;2023-09-18T01:08:45;14.50;;;4.80;;
36233;SDS011;43467;50.890;5.982;2023-09-18T01:11:31;10.05;;;4.55;;
36233;SDS011;43467;50.890;5.982;2023-09-18T01:16:42;19.00;;;6.05;;
36233;SDS011;43467;50.890;5.982;2023-09-18T01:19:17;10.88;;;4.75;;
36233;SDS011;43467;50.890;5.982;2023-09-18T01:22:00;12.25;;;5.35;;
36233;SDS011;43467;50.890;5.982;2023-09-18T01:24:31;12.13;;;5.13;;
36233;SDS011;43467;50.890;5.982;2023-09-18T01:26:58;17.17;;;5.93;;
36233;SDS011;43467;50.890;5.982;2023-09-18T01:29:23;11.38;;;4.72;;
36233;SDS011;43467;50.890;5.982;2023-09-18T01:31:49;10.18;;;4.60;;
36233;SDS011;43467;50.890;5.982;2023-09-18T01:34:16;10.27;;;5.03;;
36233;SDS011;43467;50.890;5.982;2023-09-18T01:36:44;7.88;;;4.53;;
36233;SDS011;43467;50.890;5.982;2023-09-18T01:39:12;10.60;;;4.80;;
36233;SDS011;43467;50.890;5.982;2023-09-18T01:41:39;11.45;;;5.20;;
36233;SDS011;43467;50.890;5.982;2023-09-18T01:44:06;8.27;;;4.28;;
36233;SDS011;43467;50.890;5.982;2023-09-18T01:46:34;14.05;;;4.45;;
36233;SDS011;43467;50.890;5.982;2023-09-18T01:49:01;12.75;;;4.78;;
36233;SDS011;43467;50.890;5.982;2023-09-18T01:51:28;14.20;;;4.75;;
36233;SDS011;43467;50.890;5.982;2023-09-18T01:53:55;14.27;;;5.38;;
36233;SDS011;43467;50.890;5.982;2023-09-18T01:56:21;13.98;;;4.90;;
36233;SDS011;43467;50.890;5.982;2023-09-18T01:58:47;13.15;;;4.80;;
36233;SDS011;43467;50.890;5.982;2023-09-18T02:01:12;10.43;;;4.63;;
36233;SDS011;43467;50.890;5.982;2023-09-18T02:03:38;11.73;;;4.72;;
36233;SDS011;43467;50.890;5.982;2023-09-18T02:06:07;13.52;;;4.93;;
36233;SDS011;43467;50.890;5.982;2023-09-18T02:08:33;13.40;;;5.10;;
36233;SDS011;43467;50.890;5.982;2023-09-18T02:10:59;9.32;;;4.45;;
36233;SDS011;43467;50.890;5.982;2023-09-18T02:13:25;11.00;;;4.88;;
36233;SDS011;43467;50.890;5.982;2023-09-18T02:15:51;12.70;;;5.00;;
36233;SDS011;43467;50.890;5.982;2023-09-18T02:18:17;15.88;;;6.05;;
36233;SDS011;43467;50.890;5.982;2023-09-18T02:20:42;12.02;;;5.00;;
36233;SDS011;43467;50.890;5.982;2023-09-18T02:23:12;12.13;;;4.05;;
36233;SDS011;43467;50.890;5.982;2023-09-18T02:25:38;17.15;;;4.32;;
36233;SDS011;43467;50.890;5.982;2023-09-18T02:28:05;16.52;;;4.55;;
36233;SDS011;43467;50.890;5.982;2023-09-18T02:30:31;17.42;;;4.68;;
36233;SDS011;43467;50.890;5.982;2023-09-18T02:32:57;12.40;;;4.75;;
36233;SDS011;43467;50.890;5.982;2023-09-18T02:35:22;10.98;;;3.95;;
36233;SDS011;43467;50.890;5.982;2023-09-18T02:37:48;12.80;;;4.40;;
36233;SDS011;43467;50.890;5.982;2023-09-18T02:40:16;17.15;;;4.72;;
36233;SDS011;43467;50.890;5.982;2023-09-18T02:42:43;14.43;;;4.65;;
36233;SDS011;43467;50.890;5.982;2023-09-18T02:45:11;10.07;;;3.88;;
36233;SDS011;43467;50.890;5.982;2023-09-18T02:47:36;10.10;;;4.03;;
36233;SDS011;43467;50.890;5.982;2023-09-18T02:50:06;10.05;;;3.67;;
36233;SDS011;43467;50.890;5.982;2023-09-18T02:52:32;13.70;;;4.65;;
36233;SDS011;43467;50.890;5.982;2023-09-18T02:54:58;10.10;;;4.30;;
36233;SDS011;43467;50.890;5.982;2023-09-18T02:57:23;15.73;;;4.72;;
36233;SDS011;43467;50.890;5.982;2023-09-18T02:59:49;18.33;;;5.55;;
36233;SDS011;43467;50.890;5.982;2023-09-18T03:02:14;13.55;;;4.32;;
36233;SDS011;43467;50.890;5.982;2023-09-18T03:04:42;10.20;;;4.25;;
36233;SDS011;43467;50.890;5.982;2023-09-18T03:07:08;12.13;;;4.22;;
36233;SDS011;43467;50.890;5.982;2023-09-18T03:09:33;12.40;;;4.93;;
36233;SDS011;43467;50.890;5.982;2023-09-18T03:12:00;14.93;;;4.95;;
36233;SDS011;43467;50.890;5.982;2023-09-18T03:14:27;10.35;;;4.10;;
36233;SDS011;43467;50.890;5.982;2023-09-18T03:16:52;12.48;;;4.35;;
36233;SDS011;43467;50.890;5.982;2023-09-18T03:19:17;8.50;;;3.00;;
36233;SDS011;43467;50.890;5.982;2023-09-18T03:21:43;9.65;;;3.90;;
36233;SDS011;43467;50.890;5.982;2023-09-18T03:24:09;14.63;;;4.43;;
36233;SDS011;43467;50.890;5.982;2023-09-18T03:26:35;12.57;;;4.38;;
36233;SDS011;43467;50.890;5.982;2023-09-18T03:29:00;12.23;;;4.07;;
36233;SDS011;43467;50.890;5.982;2023-09-18T03:31:26;12.25;;;5.18;;
36233;SDS011;43467;50.890;5.982;2023-09-18T03:33:52;12.93;;;3.88;;
36233;SDS011;43467;50.890;5.982;2023-09-18T03:36:20;10.15;;;3.97;;
36233;SDS011;43467;50.890;5.982;2023-09-18T03:38:47;9.90;;;3.70;;
36233;SDS011;43467;50.890;5.982;2023-09-18T03:41:12;9.50;;;3.85;;
36233;SDS011;43467;50.890;5.982;2023-09-18T03:43:38;9.27;;;3.33;;
36233;SDS011;43467;50.890;5.982;2023-09-18T03:46:07;16.83;;;3.15;;
36233;SDS011;43467;50.890;5.982;2023-09-18T03:48:33;7.82;;;3.75;;
36233;SDS011;43467;50.890;5.982;2023-09-18T03:51:03;12.75;;;4.28;;
36233;SDS011;43467;50.890;5.982;2023-09-18T03:53:30;11.65;;;4.28;;
36233;SDS011;43467;50.890;5.982;2023-09-18T03:55:55;11.75;;;3.40;;
36233;SDS011;43467;50.890;5.982;2023-09-18T03:58:20;7.82;;;3.70;;
36233;SDS011;43467;50.890;5.982;2023-09-18T04:00:46;8.40;;;3.13;;
36233;SDS011;43467;50.890;5.982;2023-09-18T04:03:12;11.57;;;4.03;;
36233;SDS011;43467;50.890;5.982;2023-09-18T04:05:37;7.05;;;3.28;;
36233;SDS011;43467;50.890;5.982;2023-09-18T04:08:03;11.82;;;3.38;;
36233;SDS011;43467;50.890;5.982;2023-09-18T04:10:28;11.43;;;3.47;;
36233;SDS011;43467;50.890;5.982;2023-09-18T04:12:54;8.32;;;3.45;;
36233;SDS011;43467;50.890;5.982;2023-09-18T04:15:20;12.55;;;3.15;;
36233;SDS011;43467;50.890;5.982;2023-09-18T04:17:48;7.80;;;2.83;;
36233;SDS011;43467;50.890;5.982;2023-09-18T04:20:14;4.90;;;2.55;;
36233;SDS011;43467;50.890;5.982;2023-09-18T04:22:42;6.20;;;2.50;;
36233;SDS011;43467;50.890;5.982;2023-09-18T04:25:09;10.98;;;2.30;;
36233;SDS011;43467;50.890;5.982;2023-09-18T04:27:35;9.10;;;2.58;;
36233;SDS011;43467;50.890;5.982;2023-09-18T04:30:01;5.60;;;2.10;;
36233;SDS011;43467;50.890;5.982;2023-09-18T04:32:29;5.63;;;2.00;;
36233;SDS011;43467;50.890;5.982;2023-09-18T04:34:55;6.03;;;2.17;;
36233;SDS011;43467;50.890;5.982;2023-09-18T04:37:21;7.43;;;2.40;;
36233;SDS011;43467;50.890;5.982;2023-09-18T04:39:47;7.10;;;2.65;;
36233;SDS011;43467;50.890;5.982;2023-09-18T04:42:12;7.60;;;2.17;;
36233;SDS011;43467;50.890;5.982;2023-09-18T04:44:38;4.18;;;1.88;;
36233;SDS011;43467;50.890;5.982;2023-09-18T04:47:03;3.33;;;2.08;;
36233;SDS011;43467;50.890;5.982;2023-09-18T04:49:32;8.13;;;1.80;;
36233;SDS011;43467;50.890;5.982;2023-09-18T04:51:58;3.05;;;1.83;;
36233;SDS011;43467;50.890;5.982;2023-09-18T04:54:23;4.80;;;2.00;;
36233;SDS011;43467;50.890;5.982;2023-09-18T04:56:49;4.22;;;2.00;;
36233;SDS011;43467;50.890;5.982;2023-09-18T04:59:15;9.23;;;2.03;;
36233;SDS011;43467;50.890;5.982;2023-09-18T05:01:41;5.32;;;1.83;;
36233;SDS011;43467;50.890;5.982;2023-09-18T05:04:07;6.43;;;2.05;;
36233;SDS011;43467;50.890;5.982;2023-09-18T05:06:33;5.88;;;1.80;;
36233;SDS011;43467;50.890;5.982;2023-09-18T05:08:59;4.63;;;1.70;;
36233;SDS011;43467;50.890;5.982;2023-09-18T05:11:25;7.10;;;2.00;;
36233;SDS011;43467;50.890;5.982;2023-09-18T05:13:51;5.53;;;2.05;;
36233;SDS011;43467;50.890;5.982;2023-09-18T05:16:18;8.55;;;3.00;;
36233;SDS011;43467;50.890;5.982;2023-09-18T05:18:43;4.45;;;1.95;;
36233;SDS011;43467;50.890;5.982;2023-09-18T05:21:09;5.68;;;2.20;;
36233;SDS011;43467;50.890;5.982;2023-09-18T05:23:35;5.97;;;2.20;;
36233;SDS011;43467;50.890;5.982;2023-09-18T05:26:01;5.13;;;1.92;;
36233;SDS011;43467;50.890;5.982;2023-09-18T05:28:28;2.60;;;1.73;;
36233;SDS011;43467;50.890;5.982;2023-09-18T05:30:53;5.53;;;1.80;;
36233;SDS011;43467;50.890;5.982;2023-09-18T05:33:19;5.05;;;1.95;;
36233;SDS011;43467;50.890;5.982;2023-09-18T05:35:45;5.35;;;1.83;;
36233;SDS011;43467;50.890;5.982;2023-09-18T05:38:11;5.75;;;1.90;;
36233;SDS011;43467;50.890;5.982;2023-09-18T05:40:42;6.90;;;2.42;;
36233;SDS011;43467;50.890;5.982;2023-09-18T05:43:09;6.97;;;2.40;;
36233;SDS011;43467;50.890;5.982;2023-09-18T05:45:36;8.07;;;2.22;;
36233;SDS011;43467;50.890;5.982;2023-09-18T05:48:01;3.67;;;1.80;;
36233;SDS011;43467;50.890;5.982;2023-09-18T05:50:30;8.07;;;2.30;;
36233;SDS011;43467;50.890;5.982;2023-09-18T05:52:57;6.78;;;2.20;;
36233;SDS011;43467;50.890;5.982;2023-09-18T05:55:29;10.30;;;2.95;;
36233;SDS011;43467;50.890;5.982;2023-09-18T05:57:55;5.70;;;2.13;;
36233;SDS011;43467;50.890;5.982;2023-09-18T06:00:22;4.90;;;1.83;;
36233;SDS011;43467;50.890;5.982;2023-09-18T06:02:48;9.35;;;2.92;;
36233;SDS011;43467;50.890;5.982;2023-09-18T06:05:14;6.05;;;1.98;;
36233;SDS011;43467;50.890;5.982;2023-09-18T06:07:41;6.15;;;1.90;;
36233;SDS011;43467;50.890;5.982;2023-09-18T06:10:07;6.80;;;2.13;;
36233;SDS011;43467;50.890;5.982;2023-09-18T06:12:32;4.75;;;1.92;;
36233;SDS011;43467;50.890;5.982;2023-09-18T06:14:58;5.05;;;1.90;;
36233;SDS011;43467;50.890;5.982;2023-09-18T06:17:23;3.80;;;1.98;;
36233;SDS011;43467;50.890;5.982;2023-09-18T06:19:49;6.38;;;2.13;;
36233;SDS011;43467;50.890;5.982;2023-09-18T06:22:15;3.88;;;1.58;;
36233;SDS011;43467;50.890;5.982;2023-09-18T06:24:42;7.32;;;2.20;;
36233;SDS011;43467;50.890;5.982;2023-09-18T06:27:07;5.88;;;1.90;;
36233;SDS011;43467;50.890;5.982;2023-09-18T06:29:33;5.63;;;1.90;;
36233;SDS011;43467;50.890;5.982;2023-09-18T06:32:00;3.22;;;1.30;;
36233;SDS011;43467;50.890;5.982;2023-09-18T06:34:26;5.13;;;1.80;;
36233;SDS011;43467;50.890;5.982;2023-09-18T06:36:51;5.38;;;1.75;;
36233;SDS011;43467;50.890;5.982;2023-09-18T06:39:19;6.57;;;2.25;;
36233;SDS011;43467;50.890;5.982;2023-09-18T06:41:47;6.18;;;2.05;;
36233;SDS011;43467;50.890;5.982;2023-09-18T06:44:13;5.95;;;2.05;;
36233;SDS011;43467;50.890;5.982;2023-09-18T06:46:38;4.50;;;1.70;;
36233;SDS011;43467;50.890;5.982;2023-09-18T06:49:04;6.03;;;1.80;;
36233;SDS011;43467;50.890;5.982;2023-09-18T06:51:30;8.98;;;1.98;;
36233;SDS011;43467;50.890;5.982;2023-09-18T06:53:56;5.00;;;1.92;;
36233;SDS011;43467;50.890;5.982;2023-09-18T06:56:24;7.20;;;1.75;;
36233;SDS011;43467;50.890;5.982;2023-09-18T06:58:50;7.03;;;1.90;;
36233;SDS011;43467;50.890;5.982;2023-09-18T07:01:20;5.97;;;1.83;;
36233;SDS011;43467;50.890;5.982;2023-09-18T07:03:47;3.85;;;1.60;;
36233;SDS011;43467;50.890;5.982;2023-09-18T07:06:13;5.40;;;1.65;;
36233;SDS011;43467;50.890;5.982;2023-09-18T07:08:45;3.72;;;1.58;;
36233;SDS011;43467;50.890;5.982;2023-09-18T07:11:12;5.75;;;1.88;;
36233;SDS011;43467;50.890;5.982;2023-09-18T07:13:38;4.22;;;1.80;;
36233;SDS011;43467;50.890;5.982;2023-09-18T07:16:04;5.18;;;1.55;;
36233;SDS011;43467;50.890;5.982;2023-09-18T07:18:31;2.17;;;1.58;;
36233;SDS011;43467;50.890;5.982;2023-09-18T07:20:57;11.07;;;2.15;;
36233;SDS011;43467;50.890;5.982;2023-09-18T07:23:22;5.65;;;1.77;;
36233;SDS011;43467;50.890;5.982;2023-09-18T07:25:48;5.18;;;1.40;;
36233;SDS011;43467;50.890;5.982;2023-09-18T07:28:13;3.55;;;1.85;;
36233;SDS011;43467;50.890;5.982;2023-09-18T07:30:42;5.75;;;1.45;;
36233;SDS011;43467;50.890;5.982;2023-09-18T07:33:12;3.75;;;2.30;;
36233;SDS011;43467;50.890;5.982;2023-09-18T07:35:41;4.60;;;1.70;;
36233;SDS011;43467;50.890;5.982;2023-09-18T07:38:07;3.95;;;1.58;;
36233;SDS011;43467;50.890;5.982;2023-09-18T07:40:33;4.85;;;1.42;;
36233;SDS011;43467;50.890;5.982;2023-09-18T07:42:58;8.20;;;1.95;;
36233;SDS011;43467;50.890;5.982;2023-09-18T07:45:24;3.25;;;1.52;;
36233;SDS011;43467;50.890;5.982;2023-09-18T07:47:49;2.75;;;1.83;;
36233;SDS011;43467;50.890;5.982;2023-09-18T07:50:15;5.47;;;1.90;;
36233;SDS011;43467;50.890;5.982;2023-09-18T07:52:42;4.25;;;1.90;;
36233;SDS011;43467;50.890;5.982;2023-09-18T07:55:07;2.30;;;1.40;;
36233;SDS011;43467;50.890;5.982;2023-09-18T07:57:33;8.23;;;1.40;;
36233;SDS011;43467;50.890;5.982;2023-09-18T07:59:59;6.90;;;1.88;;
36233;SDS011;43467;50.890;5.982;2023-09-18T08:02:32;8.25;;;2.08;;
36233;SDS011;43467;50.890;5.982;2023-09-18T08:04:57;5.85;;;1.63;;
36233;SDS011;43467;50.890;5.982;2023-09-18T08:07:23;5.70;;;2.35;;
36233;SDS011;43467;50.890;5.982;2023-09-18T08:09:48;5.25;;;1.60;;
36233;SDS011;43467;50.890;5.982;2023-09-18T08:12:14;4.00;;;2.00;;
36233;SDS011;43467;50.890;5.982;2023-09-18T08:14:39;4.68;;;1.70;;
36233;SDS011;43467;50.890;5.982;2023-09-18T08:17:05;3.97;;;1.58;;
36233;SDS011;43467;50.890;5.982;2023-09-18T08:19:32;2.35;;;1.52;;
36233;SDS011;43467;50.890;5.982;2023-09-18T08:21:58;4.47;;;1.77;;
36233;SDS011;43467;50.890;5.982;2023-09-18T08:24:28;7.47;;;1.90;;
36233;SDS011;43467;50.890;5.982;2023-09-18T08:26:54;6.00;;;1.70;;
36233;SDS011;43467;50.890;5.982;2023-09-18T08:29:21;4.60;;;1.63;;
36233;SDS011;43467;50.890;5.982;2023-09-18T08:31:47;4.05;;;2.00;;
36233;SDS011;43467;50.890;5.982;2023-09-18T08:34:14;4.72;;;1.60;;
36233;SDS011;43467;50.890;5.982;2023-09-18T08:36:40;5.43;;;1.63;;
36233;SDS011;43467;50.890;5.982;2023-09-18T08:39:05;6.07;;;1.52;;
36233;SDS011;43467;50.890;5.982;2023-09-18T08:41:31;5.43;;;2.08;;
36233;SDS011;43467;50.890;5.982;2023-09-18T08:44:01;4.50;;;1.73;;
36233;SDS011;43467;50.890;5.982;2023-09-18T08:46:29;4.30;;;1.95;;
36233;SDS011;43467;50.890;5.982;2023-09-18T08:48:55;4.78;;;1.73;;
36233;SDS011;43467;50.890;5.982;2023-09-18T08:51:24;6.15;;;1.95;;
36233;SDS011;43467;50.890;5.982;2023-09-18T08:53:50;5.82;;;1.77;;
36233;SDS011;43467;50.890;5.982;2023-09-18T08:56:17;4.10;;;2.00;;
36233;SDS011;43467;50.890;5.982;2023-09-18T08:58:43;4.43;;;1.90;;
36233;SDS011;43467;50.890;5.982;2023-09-18T09:01:10;3.95;;;1.90;;
36233;SDS011;43467;50.890;5.982;2023-09-18T09:03:37;7.70;;;2.28;;
36233;SDS011;43467;50.890;5.982;2023-09-18T09:06:11;3.17;;;1.50;;
36233;SDS011;43467;50.890;5.982;2023-09-18T09:08:37;5.35;;;1.73;;
36233;SDS011;43467;50.890;5.982;2023-09-18T09:11:03;6.68;;;2.00;;
36233;SDS011;43467;50.890;5.982;2023-09-18T09:13:29;3.60;;;1.70;;
36233;SDS011;43467;50.890;5.982;2023-09-18T09:15:55;4.68;;;1.95;;
36233;SDS011;43467;50.890;5.982;2023-09-18T09:18:22;6.53;;;1.90;;
36233;SDS011;43467;50.890;5.982;2023-09-18T09:23:19;5.10;;;2.10;;
36233;SDS011;43467;50.890;5.982;2023-09-18T09:25:45;6.43;;;2.58;;
36233;SDS011;43467;50.890;5.982;2023-09-18T09:28:10;5.25;;;2.58;;
36233;SDS011;43467;50.890;5.982;2023-09-18T09:30:37;5.32;;;2.47;;
36233;SDS011;43467;50.890;5.982;2023-09-18T09:33:03;5.35;;;2.20;;
36233;SDS011;43467;50.890;5.982;2023-09-18T09:35:31;7.03;;;2.10;;
36233;SDS011;43467;50.890;5.982;2023-09-18T09:38:02;7.22;;;2.83;;
36233;SDS011;43467;50.890;5.982;2023-09-18T09:40:33;6.18;;;2.00;;
36233;SDS011;43467;50.890;5.982;2023-09-18T09:43:00;4.50;;;1.63;;
36233;SDS011;43467;50.890;5.982;2023-09-18T09:45:28;5.63;;;1.83;;
36233;SDS011;43467;50.890;5.982;2023-09-18T09:47:55;3.63;;;1.85;;
36233;SDS011;43467;50.890;5.982;2023-09-18T09:50:25;5.90;;;2.05;;
36233;SDS011;43467;50.890;5.982;2023-09-18T09:52:51;3.75;;;1.92;;
36233;SDS011;43467;50.890;5.982;2023-09-18T09:55:18;3.92;;;1.80;;
36233;SDS011;43467;50.890;5.982;2023-09-18T09:57:52;2.40;;;1.63;;
36233;SDS011;43467;50.890;5.982;2023-09-18T10:00:43;7.82;;;2.22;;
36233;SDS011;43467;50.890;5.982;2023-09-18T10:03:13;4.35;;;1.98;;
36233;SDS011;43467;50.890;5.982;2023-09-18T10:05:44;7.20;;;2.20;;
36233;SDS011;43467;50.890;5.982;2023-09-18T10:08:12;4.50;;;1.98;;
36233;SDS011;43467;50.890;5.982;2023-09-18T10:10:51;5.60;;;1.90;;
36233;SDS011;43467;50.890;5.982;2023-09-18T10:13:19;3.22;;;1.90;;
36233;SDS011;43467;50.890;5.982;2023-09-18T10:15:50;3.85;;;2.00;;
36233;SDS011;43467;50.890;5.982;2023-09-18T10:19:10;4.30;;;2.17;;
36233;SDS011;43467;50.890;5.982;2023-09-18T10:24:32;6.60;;;1.83;;
36233;SDS011;43467;50.890;5.982;2023-09-18T10:27:02;6.80;;;2.22;;
36233;SDS011;43467;50.890;5.982;2023-09-18T10:29:28;6.75;;;2.45;;
36233;SDS011;43467;50.890;5.982;2023-09-18T10:31:56;7.07;;;2.53;;
36233;SDS011;43467;50.890;5.982;2023-09-18T10:34:22;4.88;;;2.03;;
36233;SDS011;43467;50.890;5.982;2023-09-18T10:36:52;4.25;;;1.92;;
36233;SDS011;43467;50.890;5.982;2023-09-18T10:39:20;6.18;;;2.03;;
36233;SDS011;43467;50.890;5.982;2023-09-18T10:41:52;4.72;;;2.00;;
36233;SDS011;43467;50.890;5.982;2023-09-18T10:44:19;5.07;;;2.13;;
36233;SDS011;43467;50.890;5.982;2023-09-18T10:46:48;4.95;;;2.25;;
36233;SDS011;43467;50.890;5.982;2023-09-18T10:49:17;3.90;;;2.05;;
36233;SDS011;43467;50.890;5.982;2023-09-18T10:51:44;4.38;;;1.90;;
36233;SDS011;43467;50.890;5.982;2023-09-18T10:54:14;5.38;;;2.30;;
36233;SDS011;43467;50.890;5.982;2023-09-18T10:56:44;5.43;;;2.10;;
36233;SDS011;43467;50.890;5.982;2023-09-18T10:59:10;3.70;;;1.85;;
36233;SDS011;43467;50.890;5.982;2023-09-18T11:01:36;5.28;;;1.67;;
36233;SDS011;43467;50.890;5.982;2023-09-18T11:04:06;6.00;;;2.15;;
36233;SDS011;43467;50.890;5.982;2023-09-18T11:09:22;4.93;;;2.22;;
36233;SDS011;43467;50.890;5.982;2023-09-18T11:14:40;5.28;;;1.77;;
36233;SDS011;43467;50.890;5.982;2023-09-18T11:20:09;4.88;;;1.90;;
36233;SDS011;43467;50.890;5.982;2023-09-18T11:22:49;2.42;;;1.45;;
36233;SDS011;43467;50.890;5.982;2023-09-18T11:25:35;5.95;;;1.70;;
36233;SDS011;43467;50.890;5.982;2023-09-18T11:28:03;2.47;;;1.40;;
36233;SDS011;43467;50.890;5.982;2023-09-18T11:30:33;4.63;;;1.88;;
36233;SDS011;43467;50.890;5.982;2023-09-18T11:33:01;3.58;;;1.90;;
36233;SDS011;43467;50.890;5.982;2023-09-18T11:35:28;4.00;;;2.20;;
36233;SDS011;43467;50.890;5.982;2023-09-18T11:38:07;4.38;;;1.58;;
36233;SDS011;43467;50.890;5.982;2023-09-18T11:40:35;5.43;;;1.95;;
36233;SDS011;43467;50.890;5.982;2023-09-18T11:46:02;6.60;;;2.00;;
36233;SDS011;43467;50.890;5.982;2023-09-18T11:48:30;4.67;;;1.70;;
36233;SDS011;43467;50.890;5.982;2023-09-18T11:50:59;3.65;;;1.63;;
36233;SDS011;43467;50.890;5.982;2023-09-18T11:53:28;3.25;;;1.85;;
36233;SDS011;43467;50.890;5.982;2023-09-18T11:55:54;4.13;;;1.80;;
36233;SDS011;43467;50.890;5.982;2023-09-18T11:58:20;2.90;;;1.98;;
36233;SDS011;43467;50.890;5.982;2023-09-18T12:00:48;2.78;;;1.60;;
36233;SDS011;43467;50.890;5.982;2023-09-18T12:05:51;4.88;;;1.88;;
36233;SDS011;43467;50.890;5.982;2023-09-18T12:08:23;2.67;;;1.60;;
36233;SDS011;43467;50.890;5.982;2023-09-18T12:10:54;5.88;;;2.13;;
36233;SDS011;43467;50.890;5.982;2023-09-18T12:13:20;3.58;;;1.60;;
36233;SDS011;43467;50.890;5.982;2023-09-18T12:15:47;3.15;;;1.60;;
36233;SDS011;43467;50.890;5.982;2023-09-18T12:18:14;4.22;;;2.25;;
36233;SDS011;43467;50.890;5.982;2023-09-18T12:20:45;3.47;;;2.05;;
36233;SDS011;43467;50.890;5.982;2023-09-18T12:23:11;4.75;;;2.13;;
36233;SDS011;43467;50.890;5.982;2023-09-18T12:25:38;3.92;;;2.22;;
36233;SDS011;43467;50.890;5.982;2023-09-18T12:28:05;6.32;;;2.40;;
36233;SDS011;43467;50.890;5.982;2023-09-18T12:30:32;3.85;;;2.00;;
36233;SDS011;43467;50.890;5.982;2023-09-18T12:32:59;4.88;;;1.70;;
36233;SDS011;43467;50.890;5.982;2023-09-18T12:35:31;5.32;;;1.77;;
36233;SDS011;43467;50.890;5.982;2023-09-18T12:37:57;4.53;;;1.85;;
36233;SDS011;43467;50.890;5.982;2023-09-18T12:42:58;3.45;;;2.15;;
36233;SDS011;43467;50.890;5.982;2023-09-18T12:45:24;4.07;;;1.88;;
36233;SDS011;43467;50.890;5.982;2023-09-18T12:47:51;3.80;;;1.80;;
36233;SDS011;43467;50.890;5.982;2023-09-18T12:50:19;4.20;;;1.83;;
36233;SDS011;43467;50.890;5.982;2023-09-18T12:52:45;3.28;;;1.90;;
36233;SDS011;43467;50.890;5.982;2023-09-18T12:55:21;4.10;;;1.73;;
36233;SDS011;43467;50.890;5.982;2023-09-18T12:57:48;4.43;;;1.80;;
36233;SDS011;43467;50.890;5.982;2023-09-18T13:00:15;2.50;;;1.52;;
36233;SDS011;43467;50.890;5.982;2023-09-18T13:02:47;3.38;;;1.58;;
36233;SDS011;43467;50.890;5.982;2023-09-18T13:05:19;3.30;;;1.70;;
36233;SDS011;43467;50.890;5.982;2023-09-18T13:07:45;5.45;;;2.05;;
36233;SDS011;43467;50.890;5.982;2023-09-18T13:10:11;5.10;;;1.60;;
36233;SDS011;43467;50.890;5.982;2023-09-18T13:12:42;5.55;;;1.95;;
36233;SDS011;43467;50.890;5.982;2023-09-18T13:15:24;7.45;;;2.22;;
36233;SDS011;43467;50.890;5.982;2023-09-18T13:20:16;5.53;;;2.40;;
36233;SDS011;43467;50.890;5.982;2023-09-18T13:22:48;3.35;;;1.80;;
36233;SDS011;43467;50.890;5.982;2023-09-18T13:25:19;5.05;;;1.85;;
36233;SDS011;43467;50.890;5.982;2023-09-18T13:27:57;6.07;;;1.77;;
36233;SDS011;43467;50.890;5.982;2023-09-18T13:30:23;4.75;;;1.70;;
36233;SDS011;43467;50.890;5.982;2023-09-18T13:32:49;3.25;;;1.50;;
36233;SDS011;43467;50.890;5.982;2023-09-18T13:35:18;6.30;;;1.60;;
36233;SDS011;43467;50.890;5.982;2023-09-18T13:37:44;9.18;;;2.10;;
36233;SDS011;43467;50.890;5.982;2023-09-18T13:40:10;4.65;;;1.63;;
36233;SDS011;43467;50.890;5.982;2023-09-18T13:42:40;3.95;;;2.15;;
36233;SDS011;43467;50.890;5.982;2023-09-18T13:45:06;4.68;;;1.70;;
36233;SDS011;43467;50.890;5.982;2023-09-18T13:47:32;4.28;;;1.67;;
36233;SDS011;43467;50.890;5.982;2023-09-18T13:49:59;6.95;;;2.10;;
36233;SDS011;43467;50.890;5.982;2023-09-18T13:52:29;6.63;;;2.00;;
36233;SDS011;43467;50.890;5.982;2023-09-18T13:54:56;4.00;;;1.85;;
36233;SDS011;43467;50.890;5.982;2023-09-18T13:57:22;4.22;;;2.00;;
36233;SDS011;43467;50.890;5.982;2023-09-18T13:59:52;4.50;;;2.15;;
36233;SDS011;43467;50.890;5.982;2023-09-18T14:02:18;5.85;;;2.10;;
36233;SDS011;43467;50.890;5.982;2023-09-18T14:04:44;4.80;;;2.25;;
36233;SDS011;43467;50.890;5.982;2023-09-18T14:07:11;7.00;;;2.15;;
36233;SDS011;43467;50.890;5.982;2023-09-18T14:09:38;3.65;;;1.70;;
36233;SDS011;43467;50.890;5.982;2023-09-18T14:12:04;4.32;;;2.00;;
36233;SDS011;43467;50.890;5.982;2023-09-18T14:14:34;3.72;;;1.73;;
36233;SDS011;43467;50.890;5.982;2023-09-18T14:17:00;6.03;;;2.25;;
36233;SDS011;43467;50.890;5.982;2023-09-18T14:19:27;4.45;;;1.92;;
36233;SDS011;43467;50.890;5.982;2023-09-18T14:21:52;3.25;;;1.98;;
36233;SDS011;43467;50.890;5.982;2023-09-18T14:24:18;8.10;;;2.35;;
36233;SDS011;43467;50.890;5.982;2023-09-18T14:26:47;3.63;;;1.77;;
36233;SDS011;43467;50.890;5.982;2023-09-18T14:29:14;5.10;;;2.30;;
36233;SDS011;43467;50.890;5.982;2023-09-18T14:31:39;5.20;;;2.70;;
36233;SDS011;43467;50.890;5.982;2023-09-18T14:34:08;6.55;;;1.73;;
36233;SDS011;43467;50.890;5.982;2023-09-18T14:36:34;4.68;;;1.77;;
36233;SDS011;43467;50.890;5.982;2023-09-18T14:39:01;3.38;;;1.70;;
36233;SDS011;43467;50.890;5.982;2023-09-18T14:41:35;5.57;;;2.17;;
36233;SDS011;43467;50.890;5.982;2023-09-18T14:44:02;6.30;;;2.10;;
36233;SDS011;43467;50.890;5.982;2023-09-18T14:46:29;4.68;;;2.40;;
36233;SDS011;43467;50.890;5.982;2023-09-18T14:49:02;3.97;;;2.22;;
36233;SDS011;43467;50.890;5.982;2023-09-18T14:51:28;3.45;;;1.98;;
36233;SDS011;43467;50.890;5.982;2023-09-18T14:53:54;4.35;;;2.20;;
36233;SDS011;43467;50.890;5.982;2023-09-18T14:56:20;2.90;;;1.95;;
36233;SDS011;43467;50.890;5.982;2023-09-18T14:58:46;4.80;;;1.77;;
36233;SDS011;43467;50.890;5.982;2023-09-18T15:01:12;8.02;;;2.25;;
36233;SDS011;43467;50.890;5.982;2023-09-18T15:03:39;4.90;;;2.67;;
36233;SDS011;43467;50.890;5.982;2023-09-18T15:06:07;4.82;;;2.08;;
36233;SDS011;43467;50.890;5.982;2023-09-18T15:08:33;2.65;;;1.65;;
36233;SDS011;43467;50.890;5.982;2023-09-18T15:10:59;13.13;;;2.00;;
36233;SDS011;43467;50.890;5.982;2023-09-18T15:13:27;3.55;;;2.13;;